createdAt,value
2019-04-30T00:00:15.823Z,86.95
2019-04-30T00:02:45.666Z,86.85
2019-04-30T00:05:15.158Z,86.49
2019-04-30T00:07:46.224Z,86.60
2019-04-30T00:10:16.597Z,86.87
2019-04-30T00:12:45.333Z,86.68
2019-04-30T00:15:16.175Z,86.62
2019-04-30T00:17:46.016Z,86.61
2019-04-30T00:20:15.091Z,86.43
2019-04-30T00:22:47.087Z,86.38
2019-04-30T00:25:15.375Z,86.45
2019-04-30T00:27:45.602Z,86.50
2019-04-30T00:30:15.457Z,86.14
2019-04-30T00:32:46.923Z,86.59
2019-04-30T00:35:16.166Z,86.50
2019-04-30T00:37:44.938Z,86.48
2019-04-30T00:40:15.363Z,87.15
2019-04-30T00:42:45.776Z,86.99
2019-04-30T00:45:15.454Z,87.18
2019-04-30T00:47:47.882Z,87.36
2019-04-30T00:50:15.587Z,87.52
2019-04-30T00:52:45.671Z,87.35
2019-04-30T00:55:15.861Z,86.91
2019-04-30T00:57:47.384Z,87.59
2019-04-30T01:00:19.612Z,87.22
2019-04-30T01:02:50.062Z,87.98
2019-04-30T01:05:22.108Z,88.00
2019-04-30T01:07:51.933Z,88.04
2019-04-30T01:10:24.791Z,87.58
2019-04-30T01:12:51.098Z,88.47
2019-04-30T01:15:19.491Z,88.68
2019-04-30T01:17:51.016Z,88.54
2019-04-30T01:20:19.452Z,88.76
2019-04-30T01:22:49.590Z,88.62
2019-04-30T01:25:18.998Z,88.72
2019-04-30T01:27:49.181Z,89.11
2019-04-30T01:30:22.890Z,89.26
2019-04-30T01:32:56.642Z,89.08
2019-04-30T01:35:23.791Z,89.00
2019-04-30T01:37:52.097Z,88.81
2019-04-30T01:40:20.530Z,88.99
2019-04-30T01:42:51.661Z,89.06
2019-04-30T01:45:23.195Z,89.12
2019-04-30T01:47:49.683Z,89.14
2019-04-30T01:50:19.414Z,89.14
2019-04-30T01:52:53.974Z,89.24
2019-04-30T01:55:29.472Z,89.51
2019-04-30T01:58:04.938Z,89.45
2019-04-30T02:00:35.059Z,89.41
2019-04-30T02:03:22.505Z,89.29
2019-04-30T02:05:52.417Z,89.26
2019-04-30T02:08:20.905Z,89.38
2019-04-30T02:10:51.343Z,89.35
2019-04-30T02:13:19.625Z,89.50
2019-04-30T02:15:49.241Z,89.63
2019-04-30T02:18:19.530Z,89.83
2019-04-30T02:20:49.711Z,90.00
2019-04-30T02:23:19.592Z,90.00
2019-04-30T02:25:49.897Z,89.92
2019-04-30T02:28:18.979Z,89.97
2019-04-30T02:30:50.506Z,90.01
2019-04-30T02:33:19.792Z,90.00
2019-04-30T02:35:52.829Z,90.00
2019-04-30T02:38:30.017Z,90.00
2019-04-30T02:41:00.072Z,90.07
2019-04-30T02:43:31.823Z,90.05
2019-04-30T02:46:02.048Z,90.01
2019-04-30T02:48:32.601Z,89.91
2019-04-30T02:51:03.519Z,89.92
2019-04-30T02:53:53.061Z,90.06
2019-04-30T02:56:26.293Z,90.01
2019-04-30T02:58:53.309Z,89.94
2019-04-30T03:01:21.904Z,89.87
2019-04-30T03:03:50.514Z,89.91
2019-04-30T03:06:20.348Z,90.00
2019-04-30T03:08:51.749Z,90.03
2019-04-30T03:11:20.843Z,90.01
2019-04-30T03:13:49.915Z,90.08
2019-04-30T03:16:20.701Z,90.01
2019-04-30T03:18:54.160Z,89.95
2019-04-30T03:21:42.301Z,90.13
2019-04-30T03:24:11.552Z,90.19
2019-04-30T03:26:40.450Z,90.20
2019-04-30T03:29:11.077Z,90.24
2019-04-30T03:31:44.454Z,90.26
2019-04-30T03:34:16.711Z,90.27
2019-04-30T03:36:40.625Z,90.25
2019-04-30T03:39:10.899Z,90.35
2019-04-30T03:41:41.251Z,90.44
2019-04-30T03:44:20.902Z,90.46
2019-04-30T03:46:41.622Z,90.40
2019-04-30T03:49:12.966Z,90.43
2019-04-30T03:51:40.606Z,90.52
2019-04-30T03:54:10.128Z,90.46
2019-04-30T03:56:40.144Z,90.46
2019-04-30T03:59:10.702Z,90.46
2019-04-30T04:01:44.175Z,90.44
2019-04-30T04:04:20.226Z,90.44
2019-04-30T04:06:50.566Z,90.42
2019-04-30T04:09:23.813Z,90.43
2019-04-30T04:11:52.499Z,90.51
2019-04-30T04:14:21.021Z,90.39
2019-04-30T04:16:50.932Z,90.33
2019-04-30T04:19:19.835Z,90.33
2019-04-30T04:21:50.722Z,90.40
2019-04-30T04:24:20.409Z,90.40
2019-04-30T04:26:50.249Z,90.41
2019-04-30T04:29:19.688Z,90.39
2019-04-30T04:31:50.227Z,90.36
2019-04-30T04:34:20.068Z,90.29
2019-04-30T04:36:50.481Z,90.32
2019-04-30T04:39:20.064Z,90.32
2019-04-30T04:41:50.242Z,90.27
2019-04-30T04:44:20.276Z,90.25
2019-04-30T04:46:50.352Z,90.23
2019-04-30T04:49:20.768Z,90.18
2019-04-30T04:51:49.380Z,90.19
2019-04-30T04:54:19.960Z,90.18
2019-04-30T04:56:50.391Z,90.22
2019-04-30T04:59:20.113Z,90.24
2019-04-30T05:01:50.537Z,90.27
2019-04-30T05:04:20.181Z,90.12
2019-04-30T05:06:49.878Z,89.99
2019-04-30T05:09:19.507Z,89.92
2019-04-30T05:11:48.787Z,89.99
2019-04-30T05:14:19.179Z,89.87
2019-04-30T05:16:48.822Z,89.54
2019-04-30T05:19:18.655Z,89.28
2019-04-30T05:21:47.203Z,89.08
2019-04-30T05:24:15.644Z,88.99
2019-04-30T05:26:44.082Z,88.97
2019-04-30T05:29:12.483Z,88.83
2019-04-30T05:31:40.936Z,88.40
2019-04-30T05:34:10.310Z,88.35
2019-04-30T05:36:39.267Z,88.32
2019-04-30T05:39:08.675Z,88.52
2019-04-30T05:41:38.619Z,88.31
2019-04-30T05:44:08.904Z,88.04
2019-04-30T05:46:39.646Z,87.99
2019-04-30T05:49:09.213Z,87.56
2019-04-30T05:51:38.790Z,87.03
2019-04-30T05:54:09.089Z,86.77
2019-04-30T05:56:39.841Z,85.77
2019-04-30T05:59:09.016Z,85.34
2019-04-30T06:01:39.364Z,83.58
2019-04-30T06:04:09.405Z,83.98
2019-04-30T06:06:38.892Z,81.32
2019-04-30T06:09:30.989Z,79.48
2019-04-30T06:12:10.840Z,80.83
2019-04-30T06:14:48.409Z,78.88
2019-04-30T06:17:10.796Z,80.16
2019-04-30T06:19:39.316Z,80.48
2019-04-30T06:22:10.510Z,79.48
2019-04-30T06:24:39.574Z,79.15
2019-04-30T06:27:10.557Z,77.79
2019-04-30T06:29:39.455Z,77.41
2019-04-30T06:32:08.719Z,76.42
2019-04-30T06:34:41.634Z,78.48
2019-04-30T06:37:09.685Z,75.81
2019-04-30T06:39:38.757Z,76.20
2019-04-30T06:42:12.471Z,75.65
2019-04-30T06:44:41.387Z,71.38
2019-04-30T06:47:09.164Z,73.85
2019-04-30T06:49:39.258Z,73.84
2019-04-30T06:52:19.524Z,72.43
2019-04-30T06:54:39.302Z,73.32
2019-04-30T06:57:09.749Z,73.92
2019-04-30T06:59:39.614Z,73.95
2019-04-30T07:02:09.010Z,74.76
2019-04-30T07:04:40.027Z,74.59
2019-04-30T07:07:09.104Z,74.50
2019-04-30T07:09:54.585Z,72.77
2019-04-30T07:12:28.005Z,73.84
2019-04-30T07:14:59.063Z,74.80
2019-04-30T07:17:29.103Z,74.79
2019-04-30T07:19:59.514Z,74.47
2019-04-30T07:22:39.720Z,75.01
2019-04-30T07:24:59.760Z,75.56
2019-04-30T07:27:31.947Z,74.92
2019-04-30T07:29:59.735Z,75.17
2019-04-30T07:32:28.762Z,74.15
2019-04-30T07:34:59.473Z,75.57
2019-04-30T07:37:29.245Z,74.80
2019-04-30T07:39:58.948Z,74.90
2019-04-30T07:42:29.461Z,72.99
2019-04-30T07:45:00.739Z,73.97
2019-04-30T07:47:29.535Z,73.01
2019-04-30T07:50:00.637Z,71.54
2019-04-30T07:52:33.318Z,70.85
2019-04-30T07:55:00.846Z,71.15
2019-04-30T07:57:32.490Z,70.44
2019-04-30T08:00:00.702Z,70.51
2019-04-30T08:02:36.960Z,69.42
2019-04-30T08:05:10.541Z,68.33
2019-04-30T08:07:39.313Z,67.62
2019-04-30T08:10:08.852Z,67.22
2019-04-30T08:12:42.687Z,65.39
2019-04-30T08:15:09.701Z,64.79
2019-04-30T08:17:38.922Z,64.61
2019-04-30T08:20:08.766Z,64.75
2019-04-30T08:22:40.830Z,64.22
2019-04-30T08:25:09.625Z,62.86
2019-04-30T08:27:39.292Z,61.66
2019-04-30T08:30:21.276Z,62.75
2019-04-30T08:32:39.342Z,63.95
2019-04-30T08:35:09.920Z,64.82
2019-04-30T08:37:38.602Z,61.03
2019-04-30T08:40:08.671Z,60.73
2019-04-30T08:42:39.768Z,62.30
2019-04-30T08:45:09.509Z,60.49
2019-04-30T08:47:39.311Z,58.70
2019-04-30T08:50:09.747Z,58.17
2019-04-30T08:52:39.456Z,59.72
2019-04-30T08:55:16.023Z,56.53
2019-04-30T08:57:39.559Z,59.55
2019-04-30T09:00:11.774Z,55.56
2019-04-30T09:02:40.951Z,56.14
2019-04-30T09:05:11.434Z,54.89
2019-04-30T09:07:41.527Z,52.30
2019-04-30T09:10:10.241Z,54.71
2019-04-30T09:12:39.967Z,56.88
2019-04-30T09:15:09.249Z,54.78
2019-04-30T09:17:38.605Z,50.13
2019-04-30T09:20:09.118Z,53.10
2019-04-30T09:22:39.342Z,50.10
2019-04-30T09:25:09.324Z,49.72
2019-04-30T09:27:39.652Z,53.87
2019-04-30T09:30:10.368Z,48.42
2019-04-30T09:32:39.043Z,49.70
2019-04-30T09:35:09.607Z,49.21
2019-04-30T09:37:39.029Z,48.89
2019-04-30T09:40:16.202Z,48.36
2019-04-30T09:42:39.485Z,48.31
2019-04-30T09:45:08.802Z,48.89
2019-04-30T09:47:37.544Z,47.16
2019-04-30T09:50:06.619Z,44.63
2019-04-30T09:52:36.825Z,47.11
2019-04-30T09:55:09.419Z,44.95
2019-04-30T09:57:39.025Z,44.72
2019-04-30T10:00:09.819Z,41.52
2019-04-30T10:02:38.969Z,44.63
2019-04-30T10:05:10.181Z,44.12
2019-04-30T10:07:39.740Z,42.89
2019-04-30T10:10:11.474Z,44.94
2019-04-30T10:12:40.496Z,44.15
2019-04-30T10:15:10.948Z,43.21
2019-04-30T10:17:44.072Z,44.42
2019-04-30T10:20:13.992Z,40.85
2019-04-30T10:22:43.926Z,41.73
2019-04-30T10:25:12.989Z,44.87
2019-04-30T10:27:41.636Z,39.07
2019-04-30T10:30:11.662Z,40.58
2019-04-30T10:32:40.121Z,43.22
2019-04-30T10:35:08.686Z,39.81
2019-04-30T10:37:38.763Z,39.81
2019-04-30T10:40:10.533Z,40.42
2019-04-30T10:42:39.345Z,40.68
2019-04-30T10:45:09.825Z,40.39
2019-04-30T10:47:39.314Z,39.25
2019-04-30T10:50:10.048Z,41.29
2019-04-30T10:52:39.350Z,38.62
2019-04-30T10:55:09.400Z,39.95
2019-04-30T10:57:39.650Z,39.95
2019-04-30T11:00:13.905Z,34.38
2019-04-30T11:02:42.679Z,37.07
2019-04-30T11:05:12.385Z,35.86
2019-04-30T11:07:40.874Z,33.67
2019-04-30T11:10:10.893Z,35.56
2019-04-30T11:12:40.822Z,34.09
2019-04-30T11:15:09.599Z,33.49
2019-04-30T11:17:39.692Z,34.69
2019-04-30T11:20:10.360Z,34.03
2019-04-30T11:22:39.153Z,34.93
2019-04-30T11:25:10.062Z,34.76
2019-04-30T11:27:40.765Z,31.57
2019-04-30T11:30:20.418Z,32.13
2019-04-30T11:32:39.991Z,32.79
2019-04-30T11:35:09.012Z,34.35
2019-04-30T11:37:37.513Z,33.85
2019-04-30T11:40:08.403Z,32.91
2019-04-30T11:42:36.976Z,31.47
2019-04-30T11:45:08.576Z,31.99
2019-04-30T11:47:38.260Z,31.61
2019-04-30T11:50:09.594Z,31.56
2019-04-30T11:52:38.044Z,32.39
2019-04-30T11:55:09.701Z,32.71
2019-04-30T11:57:39.781Z,33.04
2019-04-30T12:00:13.507Z,35.44
2019-04-30T12:02:43.557Z,32.82
2019-04-30T12:05:13.889Z,30.67
2019-04-30T12:07:53.033Z,33.62
2019-04-30T12:10:23.170Z,31.27
2019-04-30T12:12:51.758Z,31.72
2019-04-30T12:15:20.159Z,31.00
2019-04-30T12:17:50.099Z,30.50
2019-04-30T12:20:19.659Z,28.60
2019-04-30T12:22:49.320Z,30.51
2019-04-30T12:25:18.677Z,30.75
2019-04-30T12:27:48.796Z,30.72
2019-04-30T12:30:20.527Z,30.72
2019-04-30T12:32:49.339Z,31.68
2019-04-30T12:35:19.601Z,32.73
2019-04-30T12:37:50.867Z,27.79
2019-04-30T12:40:28.561Z,31.09
2019-04-30T12:42:48.799Z,30.02
2019-04-30T12:45:19.339Z,29.67
2019-04-30T12:47:49.123Z,31.71
2019-04-30T12:50:19.861Z,30.53
2019-04-30T12:52:52.630Z,29.26
2019-04-30T12:55:39.218Z,28.70
2019-04-30T12:58:09.767Z,28.52
2019-04-30T13:00:39.774Z,31.75
2019-04-30T13:03:08.254Z,31.85
2019-04-30T13:05:36.641Z,29.54
2019-04-30T13:08:05.698Z,30.29
2019-04-30T13:10:35.144Z,30.38
2019-04-30T13:13:04.774Z,30.90
2019-04-30T13:15:34.942Z,27.93
2019-04-30T13:18:04.678Z,29.38
2019-04-30T13:20:33.261Z,29.42
2019-04-30T13:23:01.660Z,29.90
2019-04-30T13:25:35.352Z,30.40
2019-04-30T13:28:01.924Z,29.92
2019-04-30T13:30:32.035Z,30.88
2019-04-30T13:33:13.986Z,29.34
2019-04-30T13:35:42.391Z,30.86
2019-04-30T13:38:12.634Z,30.23
2019-04-30T13:40:54.650Z,31.86
2019-04-30T13:43:30.495Z,28.88
2019-04-30T13:46:01.014Z,29.91
2019-04-30T13:48:29.408Z,30.52
2019-04-30T13:50:57.932Z,30.42
2019-04-30T13:53:27.983Z,29.89
2019-04-30T13:55:58.960Z,27.90
2019-04-30T13:58:27.742Z,28.61
2019-04-30T14:00:56.172Z,29.72
2019-04-30T14:03:42.422Z,27.87
2019-04-30T14:06:13.096Z,28.36
2019-04-30T14:08:48.921Z,27.76
2019-04-30T14:11:19.044Z,27.26
2019-04-30T14:13:47.550Z,28.87
2019-04-30T14:16:16.071Z,28.48
2019-04-30T14:18:44.756Z,30.52
2019-04-30T14:21:13.324Z,29.45
2019-04-30T14:23:41.829Z,29.77
2019-04-30T14:26:10.423Z,28.31
2019-04-30T14:28:39.146Z,27.15
2019-04-30T14:31:08.109Z,27.24
2019-04-30T14:33:36.724Z,27.53
2019-04-30T14:36:05.157Z,28.10
2019-04-30T14:38:33.531Z,28.15
2019-04-30T14:41:02.767Z,26.90
2019-04-30T14:43:39.073Z,28.98
2019-04-30T14:46:10.278Z,27.66
2019-04-30T14:49:00.625Z,28.51
2019-04-30T14:51:29.519Z,28.87
2019-04-30T14:53:59.569Z,28.39
2019-04-30T14:56:32.339Z,26.15
2019-04-30T14:59:11.462Z,27.13
2019-04-30T15:01:41.521Z,28.33
2019-04-30T15:04:10.092Z,27.78
2019-04-30T15:06:38.627Z,26.71
2019-04-30T15:11:58.535Z,27.53
2019-04-30T15:14:26.631Z,26.66
2019-04-30T15:16:55.129Z,29.79
2019-04-30T15:19:23.632Z,28.19
2019-04-30T15:21:52.297Z,29.09
2019-04-30T15:24:24.239Z,28.33
2019-04-30T15:26:57.810Z,27.87
2019-04-30T15:29:22.851Z,28.02
2019-04-30T15:31:51.245Z,30.26
2019-04-30T15:34:19.917Z,31.95
2019-04-30T15:36:51.479Z,28.62
2019-04-30T15:39:21.866Z,29.35
2019-04-30T15:41:50.779Z,28.99
2019-04-30T15:44:19.274Z,29.69
2019-04-30T15:46:49.974Z,28.04
2019-04-30T15:49:18.361Z,28.64
2019-04-30T15:51:48.271Z,27.50
2019-04-30T15:54:19.004Z,28.58
2019-04-30T15:56:49.002Z,27.98
2019-04-30T15:59:39.376Z,28.65
2019-04-30T16:02:15.156Z,29.20
2019-04-30T16:05:01.134Z,28.58
2019-04-30T16:07:29.638Z,28.72
2019-04-30T16:10:05.308Z,29.03
2019-04-30T16:12:53.559Z,28.63
2019-04-30T16:15:22.078Z,28.36
2019-04-30T16:17:52.104Z,28.45
2019-04-30T16:20:22.008Z,28.36
2019-04-30T16:22:50.486Z,28.39
2019-04-30T16:25:19.396Z,27.94
2019-04-30T16:27:48.553Z,29.67
2019-04-30T16:30:17.181Z,29.80
2019-04-30T16:32:45.580Z,29.21
2019-04-30T16:35:14.124Z,28.63
2019-04-30T16:37:42.621Z,30.16
2019-04-30T16:40:11.600Z,29.77
2019-04-30T16:42:39.990Z,30.01
2019-04-30T16:45:09.399Z,30.21
2019-04-30T16:47:38.067Z,29.56
2019-04-30T16:50:08.995Z,27.63
2019-04-30T16:52:39.380Z,28.98
2019-04-30T16:55:08.158Z,28.32
2019-04-30T16:57:36.625Z,28.65
2019-04-30T17:00:09.392Z,31.22
2019-04-30T17:02:39.402Z,30.19
2019-04-30T17:05:26.075Z,30.98
2019-04-30T17:08:01.929Z,31.47
2019-04-30T17:10:31.925Z,29.43
2019-04-30T17:13:13.881Z,32.10
2019-04-30T17:15:44.029Z,31.69
2019-04-30T17:18:12.428Z,30.63
2019-04-30T17:20:42.599Z,31.89
2019-04-30T17:23:11.106Z,33.72
2019-04-30T17:25:39.709Z,32.90
2019-04-30T17:28:09.172Z,32.07
2019-04-30T17:30:39.190Z,32.46
2019-04-30T17:33:09.454Z,31.79
2019-04-30T17:35:38.761Z,31.79
2019-04-30T17:38:07.760Z,32.03
2019-04-30T17:40:36.300Z,33.36
2019-04-30T17:43:07.825Z,34.08
2019-04-30T17:45:36.239Z,34.43
2019-04-30T17:48:04.855Z,35.43
2019-04-30T17:50:33.303Z,34.43
2019-04-30T17:53:01.680Z,33.94
2019-04-30T17:55:30.109Z,34.38
2019-04-30T17:57:59.994Z,35.19
2019-04-30T18:00:30.156Z,35.89
2019-04-30T18:02:58.563Z,36.17
2019-04-30T18:05:29.151Z,36.06
2019-04-30T18:07:57.234Z,36.30
2019-04-30T18:10:25.622Z,36.83
2019-04-30T18:12:54.003Z,36.76
2019-04-30T18:15:24.032Z,37.28
2019-04-30T18:18:02.670Z,37.14
2019-04-30T18:20:39.208Z,38.06
2019-04-30T18:23:25.638Z,38.14
2019-04-30T18:26:01.953Z,38.48
2019-04-30T18:28:30.311Z,38.92
2019-04-30T18:30:59.095Z,39.98
2019-04-30T18:33:27.887Z,40.00
2019-04-30T18:35:56.279Z,40.73
2019-04-30T18:38:24.654Z,41.26
2019-04-30T18:40:53.160Z,41.60
2019-04-30T18:43:21.737Z,42.56
2019-04-30T18:45:50.199Z,43.12
2019-04-30T18:48:20.117Z,43.54
2019-04-30T18:50:48.627Z,43.85
2019-04-30T18:53:24.649Z,44.76
2019-04-30T18:55:53.122Z,45.05
2019-04-30T18:58:21.559Z,45.93
2019-04-30T19:00:50.032Z,46.58
2019-04-30T19:03:21.558Z,48.27
2019-04-30T19:05:51.786Z,49.38
2019-04-30T19:08:30.510Z,49.43
2019-04-30T19:11:06.284Z,49.54
2019-04-30T19:13:50.974Z,50.14
2019-04-30T19:16:25.236Z,50.64
2019-04-30T19:19:03.622Z,51.77
2019-04-30T19:21:32.073Z,52.76
2019-04-30T19:24:00.467Z,52.17
2019-04-30T19:26:30.459Z,52.63
2019-04-30T19:28:58.952Z,53.27
2019-04-30T19:31:30.235Z,53.62
2019-04-30T19:33:58.949Z,54.08
2019-04-30T19:36:34.913Z,54.72
2019-04-30T19:38:59.757Z,55.26
2019-04-30T19:41:28.828Z,55.82
2019-04-30T19:43:57.350Z,56.38
2019-04-30T19:46:25.724Z,56.76
2019-04-30T19:48:54.888Z,57.63
2019-04-30T19:51:23.295Z,57.93
2019-04-30T19:53:51.664Z,58.09
2019-04-30T19:56:23.391Z,58.36
2019-04-30T19:59:01.593Z,58.69
2019-04-30T20:01:22.339Z,58.95
2019-04-30T20:03:50.989Z,59.22
2019-04-30T20:06:19.604Z,59.50
2019-04-30T20:08:48.093Z,60.28
2019-04-30T20:11:16.548Z,60.28
2019-04-30T20:13:45.297Z,60.71
2019-04-30T20:16:13.744Z,60.54
2019-04-30T20:18:42.315Z,60.77
2019-04-30T20:21:27.579Z,61.34
2019-04-30T20:23:46.876Z,62.06
2019-04-30T20:26:15.373Z,62.59
2019-04-30T20:28:43.758Z,62.94
2019-04-30T20:31:12.428Z,63.17
2019-04-30T20:33:40.809Z,63.33
2019-04-30T20:36:10.819Z,62.85
2019-04-30T20:38:42.358Z,63.26
2019-04-30T20:41:12.196Z,63.51
2019-04-30T20:43:40.663Z,63.97
2019-04-30T20:46:09.127Z,63.85
2019-04-30T20:48:41.174Z,64.04
2019-04-30T20:51:09.865Z,65.04
2019-04-30T20:53:39.109Z,65.25
2019-04-30T20:56:09.350Z,65.18
2019-04-30T20:58:39.083Z,65.56
2019-04-30T21:01:09.577Z,65.45
2019-04-30T21:03:40.571Z,65.26
2019-04-30T21:06:09.009Z,65.79
2019-04-30T21:08:37.382Z,65.73
2019-04-30T21:11:05.802Z,66.17
2019-04-30T21:13:34.236Z,66.15
2019-04-30T21:16:03.096Z,66.10
2019-04-30T21:18:32.537Z,66.03
2019-04-30T21:21:01.132Z,66.40
2019-04-30T21:23:29.513Z,67.00
2019-04-30T21:25:58.890Z,67.42
2019-04-30T21:28:29.515Z,67.85
2019-04-30T21:30:59.266Z,67.91
2019-04-30T21:33:31.898Z,67.51
2019-04-30T21:36:08.776Z,68.04
2019-04-30T21:38:38.956Z,68.05
2019-04-30T21:41:09.820Z,68.46
2019-04-30T21:43:37.701Z,68.14
2019-04-30T21:46:06.102Z,67.54
2019-04-30T21:48:34.474Z,67.91
2019-04-30T21:51:02.892Z,67.49
2019-04-30T21:53:32.853Z,67.65
2019-04-30T21:56:02.786Z,67.66
2019-04-30T21:58:31.183Z,67.57
2019-04-30T22:01:11.299Z,67.53
2019-04-30T22:03:41.217Z,67.75
2019-04-30T22:06:10.650Z,67.86
2019-04-30T22:08:39.321Z,68.20
2019-04-30T22:11:09.603Z,68.53
2019-04-30T22:13:43.093Z,68.13
2019-04-30T22:16:10.282Z,67.94
2019-04-30T22:18:38.848Z,68.66
2019-04-30T22:21:07.245Z,69.02
2019-04-30T22:23:35.613Z,68.49
2019-04-30T22:26:04.542Z,68.17
2019-04-30T22:28:32.917Z,68.67
2019-04-30T22:31:01.364Z,68.90
2019-04-30T22:33:31.241Z,68.45
2019-04-30T22:36:10.803Z,69.36
2019-04-30T22:38:52.603Z,72.03
2019-04-30T22:41:25.610Z,70.71
2019-04-30T22:43:53.998Z,71.48
2019-04-30T22:46:22.407Z,71.18
2019-04-30T22:48:50.781Z,70.29
2019-04-30T22:51:19.248Z,70.07
2019-04-30T22:53:47.594Z,70.02
2019-04-30T22:56:16.002Z,69.71
2019-04-30T22:58:44.373Z,69.81
2019-04-30T23:01:30.290Z,69.47
2019-04-30T23:04:06.118Z,70.10
2019-04-30T23:06:38.721Z,69.59
2019-04-30T23:09:11.368Z,70.23
2019-04-30T23:11:40.131Z,70.58
2019-04-30T23:14:08.506Z,71.07
2019-04-30T23:16:37.067Z,70.61
2019-04-30T23:19:05.516Z,70.93
2019-04-30T23:21:33.887Z,70.93
2019-04-30T23:24:02.477Z,71.03
2019-04-30T23:26:30.863Z,71.72
2019-04-30T23:28:59.243Z,71.54
2019-04-30T23:31:27.792Z,72.27
2019-04-30T23:33:56.149Z,72.26
2019-04-30T23:36:24.577Z,72.14
2019-04-30T23:38:52.943Z,72.49
2019-04-30T23:41:21.824Z,73.31
2019-04-30T23:43:50.198Z,73.22
2019-04-30T23:46:18.658Z,73.32
2019-04-30T23:48:47.040Z,73.69
2019-04-30T23:51:15.505Z,74.08
2019-04-30T23:53:43.984Z,78.86
2019-04-30T23:56:12.442Z,76.38
2019-04-30T23:58:40.931Z,76.41
